Main page
METAR-TAF:

METAR-TAF

Airports :

Winchester Municipal Airport

Winchester, Tennessee, United States

latitude: 35-10-39N, longitude: 086-03-58W, elevation: 977 ft

Current weather observation

The report was made 27 minutes ago, at 10:55 UTC
Calm wind
Temperature 32°F
Humidity 86%
Pressure 30.24 in. Hg
Visibility: 10 miles
Broken clouds at a height of 10000 ft

METAR: KBGF 231055Z AUTO 00000KT 10SM BKN100 M00/M02 A3024 RMK A01

Time: 05:22 (11:22 UTC)


TAF: missing

Weather observations and forecasts of more than 4000 airports (METAR and TAF reports).

The available stations are represented by yellow and red dots on the map.

Hover mouse over dot to see the name of the station.

Then click to see weather observations and forecasts.

To change the map : click on the green buttons with a black cross to zoom in, on the green button with a dash to zoom out, or on the green arrows for adjacent maps.


METAR-TAF: